sensor_id;sensor_type;location;lat;lon;timestamp;pressure;altitude;pressure_sealevel;temperature;humidity
84308;BME280;74486;52.070;5.128;2024-02-28T00:00:03;102121.75;;;3.08;100.00
84308;BME280;74486;52.070;5.128;2024-02-28T00:02:29;102125.13;;;2.98;100.00
84308;BME280;74486;52.070;5.128;2024-02-28T00:04:54;102123.31;;;2.88;100.00
84308;BME280;74486;52.070;5.128;2024-02-28T00:07:20;102118.91;;;2.79;100.00
84308;BME280;74486;52.070;5.128;2024-02-28T00:09:45;102112.97;;;2.71;100.00
84308;BME280;74486;52.070;5.128;2024-02-28T00:12:12;102116.50;;;2.63;100.00
84308;BME280;74486;52.070;5.128;2024-02-28T00:14:37;102113.31;;;2.57;100.00
84308;BME280;74486;52.070;5.128;2024-02-28T00:17:04;102113.94;;;2.54;100.00
84308;BME280;74486;52.070;5.128;2024-02-28T00:19:29;102117.72;;;2.49;100.00
84308;BME280;74486;52.070;5.128;2024-02-28T00:21:55;102118.63;;;2.41;100.00
84308;BME280;74486;52.070;5.128;2024-02-28T00:24:20;102118.19;;;2.37;100.00
84308;BME280;74486;52.070;5.128;2024-02-28T00:26:46;102116.47;;;2.29;100.00
84308;BME280;74486;52.070;5.128;2024-02-28T00:29:12;102117.69;;;2.24;100.00
84308;BME280;74486;52.070;5.128;2024-02-28T00:31:38;102125.44;;;2.15;100.00
84308;BME280;74486;52.070;5.128;2024-02-28T00:34:04;102119.94;;;2.03;100.00
84308;BME280;74486;52.070;5.128;2024-02-28T00:36:29;102126.31;;;1.98;100.00
84308;BME280;74486;52.070;5.128;2024-02-28T00:38:55;102120.66;;;1.94;100.00
84308;BME280;74486;52.070;5.128;2024-02-28T00:41:20;102123.88;;;1.91;100.00
84308;BME280;74486;52.070;5.128;2024-02-28T00:43:46;102116.13;;;1.91;100.00
84308;BME280;74486;52.070;5.128;2024-02-28T00:46:12;102115.50;;;1.85;100.00
84308;BME280;74486;52.070;5.128;2024-02-28T00:48:38;102119.00;;;1.86;100.00
84308;BME280;74486;52.070;5.128;2024-02-28T00:51:04;102117.78;;;1.82;100.00
84308;BME280;74486;52.070;5.128;2024-02-28T00:53:29;102121.56;;;1.77;100.00
84308;BME280;74486;52.070;5.128;2024-02-28T00:55:55;102117.63;;;1.81;100.00
84308;BME280;74486;52.070;5.128;2024-02-28T00:58:20;102125.91;;;1.69;100.00
84308;BME280;74486;52.070;5.128;2024-02-28T01:00:47;102130.72;;;1.58;100.00
84308;BME280;74486;52.070;5.128;2024-02-28T01:03:14;102119.63;;;1.50;100.00
84308;BME280;74486;52.070;5.128;2024-02-28T01:05:39;102119.75;;;1.43;100.00
84308;BME280;74486;52.070;5.128;2024-02-28T01:08:06;102117.94;;;1.42;100.00
84308;BME280;74486;52.070;5.128;2024-02-28T01:10:31;102128.03;;;1.32;100.00
84308;BME280;74486;52.070;5.128;2024-02-28T01:12:57;102118.06;;;1.35;100.00
84308;BME280;74486;52.070;5.128;2024-02-28T01:15:23;102123.22;;;1.35;100.00
84308;BME280;74486;52.070;5.128;2024-02-28T01:17:48;102118.16;;;1.28;100.00
84308;BME280;74486;52.070;5.128;2024-02-28T01:20:15;102117.72;;;1.32;100.00
84308;BME280;74486;52.070;5.128;2024-02-28T01:22:41;102124.97;;;1.27;100.00
84308;BME280;74486;52.070;5.128;2024-02-28T01:25:07;102120.44;;;1.25;100.00
84308;BME280;74486;52.070;5.128;2024-02-28T01:27:32;102119.03;;;1.20;100.00
84308;BME280;74486;52.070;5.128;2024-02-28T01:29:58;102120.56;;;1.26;100.00
84308;BME280;74486;52.070;5.128;2024-02-28T01:32:23;102117.22;;;1.19;100.00
84308;BME280;74486;52.070;5.128;2024-02-28T01:34:49;102118.56;;;1.15;100.00
84308;BME280;74486;52.070;5.128;2024-02-28T01:37:15;102119.97;;;1.20;100.00
84308;BME280;74486;52.070;5.128;2024-02-28T01:39:41;102116.78;;;1.23;100.00
84308;BME280;74486;52.070;5.128;2024-02-28T01:42:06;102111.47;;;1.21;100.00
84308;BME280;74486;52.070;5.128;2024-02-28T01:44:33;102105.09;;;1.18;100.00
84308;BME280;74486;52.070;5.128;2024-02-28T01:47:02;102109.06;;;1.23;100.00
84308;BME280;74486;52.070;5.128;2024-02-28T01:49:27;102114.94;;;1.22;100.00
84308;BME280;74486;52.070;5.128;2024-02-28T01:51:54;102110.66;;;1.14;100.00
84308;BME280;74486;52.070;5.128;2024-02-28T01:54:21;102107.00;;;1.12;100.00
84308;BME280;74486;52.070;5.128;2024-02-28T01:56:47;102099.47;;;1.13;100.00
84308;BME280;74486;52.070;5.128;2024-02-28T01:59:13;102098.88;;;1.16;100.00
84308;BME280;74486;52.070;5.128;2024-02-28T02:01:38;102110.06;;;1.16;100.00
84308;BME280;74486;52.070;5.128;2024-02-28T02:04:04;102114.91;;;1.13;100.00
84308;BME280;74486;52.070;5.128;2024-02-28T02:06:30;102111.28;;;1.11;100.00
84308;BME280;74486;52.070;5.128;2024-02-28T02:08:55;102115.31;;;1.01;100.00
84308;BME280;74486;52.070;5.128;2024-02-28T02:11:23;102112.47;;;1.06;100.00
84308;BME280;74486;52.070;5.128;2024-02-28T02:13:49;102113.72;;;0.94;100.00
84308;BME280;74486;52.070;5.128;2024-02-28T02:16:14;102112.34;;;0.89;100.00
84308;BME280;74486;52.070;5.128;2024-02-28T02:18:40;102115.09;;;0.91;100.00
84308;BME280;74486;52.070;5.128;2024-02-28T02:21:06;102117.91;;;0.85;100.00
84308;BME280;74486;52.070;5.128;2024-02-28T02:23:34;102115.81;;;0.90;100.00
84308;BME280;74486;52.070;5.128;2024-02-28T02:25:59;102119.66;;;1.02;100.00
84308;BME280;74486;52.070;5.128;2024-02-28T02:28:25;102115.31;;;1.01;100.00
84308;BME280;74486;52.070;5.128;2024-02-28T02:30:50;102108.09;;;0.90;100.00
84308;BME280;74486;52.070;5.128;2024-02-28T02:33:15;102106.72;;;0.84;100.00
84308;BME280;74486;52.070;5.128;2024-02-28T02:35:41;102110.38;;;0.86;100.00
84308;BME280;74486;52.070;5.128;2024-02-28T02:38:06;102115.91;;;0.82;100.00
84308;BME280;74486;52.070;5.128;2024-02-28T02:40:33;102111.81;;;0.76;100.00
84308;BME280;74486;52.070;5.128;2024-02-28T02:42:59;102116.94;;;0.76;100.00
84308;BME280;74486;52.070;5.128;2024-02-28T02:45:24;102107.88;;;0.79;100.00
84308;BME280;74486;52.070;5.128;2024-02-28T02:47:50;102108.50;;;0.77;100.00
84308;BME280;74486;52.070;5.128;2024-02-28T02:50:15;102100.28;;;0.72;100.00
84308;BME280;74486;52.070;5.128;2024-02-28T02:52:41;102107.88;;;0.79;100.00
84308;BME280;74486;52.070;5.128;2024-02-28T02:55:07;102112.13;;;0.79;100.00
84308;BME280;74486;52.070;5.128;2024-02-28T02:57:35;102101.38;;;0.83;100.00
84308;BME280;74486;52.070;5.128;2024-02-28T03:00:00;102108.38;;;0.84;100.00
84308;BME280;74486;52.070;5.128;2024-02-28T03:02:26;102109.66;;;0.96;100.00
84308;BME280;74486;52.070;5.128;2024-02-28T03:04:51;102111.75;;;0.92;100.00
84308;BME280;74486;52.070;5.128;2024-02-28T03:07:16;102106.75;;;0.93;100.00
84308;BME280;74486;52.070;5.128;2024-02-28T03:09:42;102107.16;;;1.05;100.00
84308;BME280;74486;52.070;5.128;2024-02-28T03:12:08;102102.63;;;1.11;100.00
84308;BME280;74486;52.070;5.128;2024-02-28T03:14:35;102096.13;;;1.14;100.00
84308;BME280;74486;52.070;5.128;2024-02-28T03:17:01;102096.13;;;1.14;100.00
84308;BME280;74486;52.070;5.128;2024-02-28T03:19:26;102088.75;;;1.26;100.00
84308;BME280;74486;52.070;5.128;2024-02-28T03:21:52;102092.31;;;1.35;100.00
84308;BME280;74486;52.070;5.128;2024-02-28T03:24:17;102097.78;;;1.47;100.00
84308;BME280;74486;52.070;5.128;2024-02-28T03:26:43;102091.16;;;1.57;100.00
84308;BME280;74486;52.070;5.128;2024-02-28T03:29:08;102087.13;;;1.68;100.00
84308;BME280;74486;52.070;5.128;2024-02-28T03:31:35;102080.94;;;1.83;100.00
84308;BME280;74486;52.070;5.128;2024-02-28T03:34:01;102093.69;;;1.90;100.00
84308;BME280;74486;52.070;5.128;2024-02-28T03:36:28;102098.72;;;1.97;100.00
84308;BME280;74486;52.070;5.128;2024-02-28T03:38:53;102093.44;;;2.22;100.00
84308;BME280;74486;52.070;5.128;2024-02-28T03:41:19;102093.88;;;2.26;100.00
84308;BME280;74486;52.070;5.128;2024-02-28T03:43:44;102089.34;;;2.32;100.00
84308;BME280;74486;52.070;5.128;2024-02-28T03:46:09;102084.81;;;2.47;100.00
84308;BME280;74486;52.070;5.128;2024-02-28T03:48:36;102085.22;;;2.60;100.00
84308;BME280;74486;52.070;5.128;2024-02-28T03:51:02;102088.56;;;2.68;100.00
84308;BME280;74486;52.070;5.128;2024-02-28T03:53:28;102088.22;;;2.82;100.00
84308;BME280;74486;52.070;5.128;2024-02-28T03:55:53;102090.03;;;2.91;100.00
84308;BME280;74486;52.070;5.128;2024-02-28T03:58:18;102090.19;;;2.93;100.00
84308;BME280;74486;52.070;5.128;2024-02-28T04:00:44;102083.31;;;3.02;100.00
84308;BME280;74486;52.070;5.128;2024-02-28T04:03:09;102087.88;;;3.13;100.00
84308;BME280;74486;52.070;5.128;2024-02-28T04:05:36;102085.97;;;3.29;100.00
84308;BME280;74486;52.070;5.128;2024-02-28T04:08:02;102078.56;;;3.24;100.00
84308;BME280;74486;52.070;5.128;2024-02-28T04:10:27;102082.94;;;3.33;100.00
84308;BME280;74486;52.070;5.128;2024-02-28T04:12:53;102085.81;;;3.36;100.00
84308;BME280;74486;52.070;5.128;2024-02-28T04:15:18;102086.50;;;3.44;100.00
84308;BME280;74486;52.070;5.128;2024-02-28T04:17:43;102083.47;;;3.48;100.00
84308;BME280;74486;52.070;5.128;2024-02-28T04:20:10;102087.97;;;3.59;100.00
84308;BME280;74486;52.070;5.128;2024-02-28T04:22:36;102082.91;;;3.69;100.00
84308;BME280;74486;52.070;5.128;2024-02-28T04:25:02;102085.31;;;3.76;100.00
84308;BME280;74486;52.070;5.128;2024-02-28T04:27:28;102081.56;;;3.91;100.00
84308;BME280;74486;52.070;5.128;2024-02-28T04:29:53;102086.59;;;3.90;100.00
84308;BME280;74486;52.070;5.128;2024-02-28T04:32:19;102086.59;;;3.90;100.00
84308;BME280;74486;52.070;5.128;2024-02-28T04:34:44;102094.94;;;3.87;100.00
84308;BME280;74486;52.070;5.128;2024-02-28T04:37:10;102092.34;;;3.96;100.00
84308;BME280;74486;52.070;5.128;2024-02-28T04:39:37;102093.53;;;4.00;100.00
84308;BME280;74486;52.070;5.128;2024-02-28T04:42:03;102098.38;;;4.05;100.00
84308;BME280;74486;52.070;5.128;2024-02-28T04:44:28;102093.63;;;4.10;100.00
84308;BME280;74486;52.070;5.128;2024-02-28T04:46:54;102101.66;;;4.13;100.00
84308;BME280;74486;52.070;5.128;2024-02-28T04:49:19;102101.72;;;4.23;100.00
84308;BME280;74486;52.070;5.128;2024-02-28T04:51:45;102106.00;;;4.22;100.00
84308;BME280;74486;52.070;5.128;2024-02-28T04:54:10;102108.47;;;4.21;100.00
84308;BME280;74486;52.070;5.128;2024-02-28T04:56:41;102113.91;;;4.24;100.00
84308;BME280;74486;52.070;5.128;2024-02-28T04:59:06;102117.25;;;4.23;100.00
84308;BME280;74486;52.070;5.128;2024-02-28T05:01:32;102124.25;;;4.24;100.00
84308;BME280;74486;52.070;5.128;2024-02-28T05:03:57;102125.78;;;4.22;100.00
84308;BME280;74486;52.070;5.128;2024-02-28T05:06:22;102127.47;;;4.21;100.00
84308;BME280;74486;52.070;5.128;2024-02-28T05:08:48;102118.94;;;4.22;100.00
84308;BME280;74486;52.070;5.128;2024-02-28T05:11:13;102114.06;;;4.25;100.00
84308;BME280;74486;52.070;5.128;2024-02-28T05:13:40;102109.00;;;4.27;100.00
84308;BME280;74486;52.070;5.128;2024-02-28T05:16:12;102114.97;;;4.26;100.00
84308;BME280;74486;52.070;5.128;2024-02-28T05:18:38;102121.94;;;4.27;100.00
84308;BME280;74486;52.070;5.128;2024-02-28T05:21:03;102116.66;;;4.25;100.00
84308;BME280;74486;52.070;5.128;2024-02-28T05:23:29;102117.97;;;4.30;100.00
84308;BME280;74486;52.070;5.128;2024-02-28T05:25:54;102117.50;;;4.34;100.00
84308;BME280;74486;52.070;5.128;2024-02-28T05:28:20;102117.34;;;4.33;100.00
84308;BME280;74486;52.070;5.128;2024-02-28T05:30:47;102110.00;;;4.37;100.00
84308;BME280;74486;52.070;5.128;2024-02-28T05:33:12;102115.31;;;4.39;100.00
84308;BME280;74486;52.070;5.128;2024-02-28T05:35:37;102111.16;;;4.41;100.00
84308;BME280;74486;52.070;5.128;2024-02-28T05:38:03;102108.31;;;4.38;100.00
84308;BME280;74486;52.070;5.128;2024-02-28T05:40:29;102111.97;;;4.40;100.00
84308;BME280;74486;52.070;5.128;2024-02-28T05:42:54;102117.41;;;4.43;100.00
84308;BME280;74486;52.070;5.128;2024-02-28T05:45:19;102111.75;;;4.47;100.00
84308;BME280;74486;52.070;5.128;2024-02-28T05:47:46;102105.16;;;4.51;100.00
84308;BME280;74486;52.070;5.128;2024-02-28T05:50:12;102109.22;;;4.57;100.00
84308;BME280;74486;52.070;5.128;2024-02-28T05:52:37;102113.22;;;4.72;100.00
84308;BME280;74486;52.070;5.128;2024-02-28T05:55:03;102114.81;;;4.62;100.00
84308;BME280;74486;52.070;5.128;2024-02-28T05:57:29;102116.22;;;4.58;100.00
84308;BME280;74486;52.070;5.128;2024-02-28T05:59:54;102113.50;;;4.57;100.00
84308;BME280;74486;52.070;5.128;2024-02-28T06:02:20;102111.66;;;4.56;100.00
84308;BME280;74486;52.070;5.128;2024-02-28T06:04:47;102119.31;;;4.54;100.00
84308;BME280;74486;52.070;5.128;2024-02-28T06:07:12;102120.16;;;4.63;100.00
84308;BME280;74486;52.070;5.128;2024-02-28T06:09:37;102120.00;;;4.62;100.00
84308;BME280;74486;52.070;5.128;2024-02-28T06:12:03;102118.53;;;4.74;100.00
84308;BME280;74486;52.070;5.128;2024-02-28T06:14:29;102123.31;;;4.69;100.00
84308;BME280;74486;52.070;5.128;2024-02-28T06:16:54;102116.38;;;4.78;100.00
84308;BME280;74486;52.070;5.128;2024-02-28T06:19:20;102120.97;;;4.72;100.00
84308;BME280;74486;52.070;5.128;2024-02-28T06:21:46;102111.66;;;4.74;100.00
84308;BME280;74486;52.070;5.128;2024-02-28T06:24:12;102120.97;;;4.72;100.00
84308;BME280;74486;52.070;5.128;2024-02-28T06:26:37;102125.88;;;4.69;100.00
84308;BME280;74486;52.070;5.128;2024-02-28T06:29:03;102125.25;;;4.72;100.00
84308;BME280;74486;52.070;5.128;2024-02-28T06:31:28;102134.94;;;4.74;100.00
84308;BME280;74486;52.070;5.128;2024-02-28T06:33:53;102136.66;;;4.74;100.00
84308;BME280;74486;52.070;5.128;2024-02-28T06:36:19;102131.50;;;4.74;100.00
84308;BME280;74486;52.070;5.128;2024-02-28T06:38:46;102139.44;;;4.86;100.00
84308;BME280;74486;52.070;5.128;2024-02-28T06:41:11;102146.44;;;4.87;100.00
84308;BME280;74486;52.070;5.128;2024-02-28T06:43:37;102149.94;;;4.87;100.00
84308;BME280;74486;52.070;5.128;2024-02-28T06:46:03;102140.59;;;4.89;100.00
84308;BME280;74486;52.070;5.128;2024-02-28T06:48:28;102150.50;;;4.93;100.00
84308;BME280;74486;52.070;5.128;2024-02-28T06:50:54;102162.19;;;4.98;100.00
84308;BME280;74486;52.070;5.128;2024-02-28T06:53:19;102170.31;;;4.93;100.00
84308;BME280;74486;52.070;5.128;2024-02-28T06:55:46;102172.91;;;4.93;100.00
84308;BME280;74486;52.070;5.128;2024-02-28T06:58:12;102173.03;;;4.94;100.00
84308;BME280;74486;52.070;5.128;2024-02-28T07:00:37;102175.50;;;4.93;100.00
84308;BME280;74486;52.070;5.128;2024-02-28T07:03:03;102174.59;;;4.92;100.00
84308;BME280;74486;52.070;5.128;2024-02-28T07:05:28;102177.59;;;4.97;100.00
84308;BME280;74486;52.070;5.128;2024-02-28T07:07:55;102172.31;;;5.05;100.00
84308;BME280;74486;52.070;5.128;2024-02-28T07:10:21;102171.47;;;5.15;100.00
84308;BME280;74486;52.070;5.128;2024-02-28T07:12:48;102173.88;;;5.03;100.00
84308;BME280;74486;52.070;5.128;2024-02-28T07:15:13;102180.88;;;5.04;100.00
84308;BME280;74486;52.070;5.128;2024-02-28T07:17:39;102180.25;;;5.07;100.00
84308;BME280;74486;52.070;5.128;2024-02-28T07:20:05;102185.53;;;5.08;100.00
84308;BME280;74486;52.070;5.128;2024-02-28T07:22:31;102181.78;;;5.05;100.00
84308;BME280;74486;52.070;5.128;2024-02-28T07:24:56;102182.94;;;5.08;100.00
84308;BME280;74486;52.070;5.128;2024-02-28T07:27:22;102186.41;;;5.17;100.00
84308;BME280;74486;52.070;5.128;2024-02-28T07:29:49;102189.91;;;5.18;100.00
84308;BME280;74486;52.070;5.128;2024-02-28T07:32:14;102186.81;;;5.22;100.00
84308;BME280;74486;52.070;5.128;2024-02-28T07:34:40;102193.78;;;5.23;100.00
84308;BME280;74486;52.070;5.128;2024-02-28T07:37:05;102200.75;;;5.14;100.00
84308;BME280;74486;52.070;5.128;2024-02-28T07:39:31;102206.72;;;5.13;100.00
84308;BME280;74486;52.070;5.128;2024-02-28T07:41:56;102210.75;;;5.19;100.00
84308;BME280;74486;52.070;5.128;2024-02-28T07:44:22;102218.81;;;5.22;100.00
84308;BME280;74486;52.070;5.128;2024-02-28T07:46:49;102211.47;;;5.27;100.00
84308;BME280;74486;52.070;5.128;2024-02-28T07:49:14;102211.25;;;5.15;100.00
84308;BME280;74486;52.070;5.128;2024-02-28T07:51:40;102212.84;;;5.23;100.00
84308;BME280;74486;52.070;5.128;2024-02-28T07:54:05;102212.44;;;5.19;100.00
84308;BME280;74486;52.070;5.128;2024-02-28T07:56:31;102208.31;;;5.21;100.00
84308;BME280;74486;52.070;5.128;2024-02-28T07:58:57;102214.00;;;5.17;100.00
84308;BME280;74486;52.070;5.128;2024-02-28T08:01:22;102214.09;;;5.18;100.00
84308;BME280;74486;52.070;5.128;2024-02-28T08:03:49;102224.47;;;5.18;100.00
84308;BME280;74486;52.070;5.128;2024-02-28T08:06:15;102220.44;;;5.12;100.00
84308;BME280;74486;52.070;5.128;2024-02-28T08:08:43;102228.63;;;5.16;100.00
84308;BME280;74486;52.070;5.128;2024-02-28T08:11:09;102220.63;;;5.23;100.00
84308;BME280;74486;52.070;5.128;2024-02-28T08:13:34;102227.06;;;5.18;100.00
84308;BME280;74486;52.070;5.128;2024-02-28T08:16:00;102232.81;;;5.24;100.00
84308;BME280;74486;52.070;5.128;2024-02-28T08:18:25;102234.78;;;5.27;100.00
84308;BME280;74486;52.070;5.128;2024-02-28T08:20:52;102237.84;;;5.23;100.00
84308;BME280;74486;52.070;5.128;2024-02-28T08:23:17;102239.81;;;5.25;100.00
84308;BME280;74486;52.070;5.128;2024-02-28T08:25:43;102235.41;;;5.24;100.00
84308;BME280;74486;52.070;5.128;2024-02-28T08:28:08;102240.88;;;5.28;100.00
84308;BME280;74486;52.070;5.128;2024-02-28T08:30:34;102238.91;;;5.25;100.00
84308;BME280;74486;52.070;5.128;2024-02-28T08:32:59;102241.22;;;5.41;100.00
84308;BME280;74486;52.070;5.128;2024-02-28T08:35:25;102236.53;;;5.37;100.00
84308;BME280;74486;52.070;5.128;2024-02-28T08:37:52;102252.75;;;5.44;100.00
84308;BME280;74486;52.070;5.128;2024-02-28T08:40:17;102243.72;;;5.49;100.00
84308;BME280;74486;52.070;5.128;2024-02-28T08:42:42;102249.16;;;5.52;100.00
84308;BME280;74486;52.070;5.128;2024-02-28T08:45:10;102253.97;;;5.58;100.00
84308;BME280;74486;52.070;5.128;2024-02-28T08:47:35;102251.53;;;5.59;100.00
84308;BME280;74486;52.070;5.128;2024-02-28T08:50:01;102250.81;;;5.71;100.00
84308;BME280;74486;52.070;5.128;2024-02-28T08:52:26;102252.25;;;5.77;100.00
84308;BME280;74486;52.070;5.128;2024-02-28T08:54:53;102257.72;;;5.80;100.00
84308;BME280;74486;52.070;5.128;2024-02-28T08:57:18;102253.72;;;5.84;100.00
84308;BME280;74486;52.070;5.128;2024-02-28T08:59:44;102243.03;;;5.99;100.00
84308;BME280;74486;52.070;5.128;2024-02-28T09:02:09;102236.97;;;6.09;100.00
84308;BME280;74486;52.070;5.128;2024-02-28T09:04:35;102236.34;;;6.32;100.00
84308;BME280;74486;52.070;5.128;2024-02-28T09:07:00;102231.16;;;6.42;100.00
84308;BME280;74486;52.070;5.128;2024-02-28T09:09:26;102227.91;;;6.34;100.00
84308;BME280;74486;52.070;5.128;2024-02-28T09:11:53;102232.47;;;6.47;98.96
84308;BME280;74486;52.070;5.128;2024-02-28T09:14:18;102236.91;;;6.48;100.00
84308;BME280;74486;52.070;5.128;2024-02-28T09:16:44;102233.25;;;6.66;99.89
84308;BME280;74486;52.070;5.128;2024-02-28T09:19:09;102230.91;;;6.59;98.37
84308;BME280;74486;52.070;5.128;2024-02-28T09:21:35;102231.19;;;6.62;97.21
84308;BME280;74486;52.070;5.128;2024-02-28T09:24:00;102228.59;;;6.72;98.92
84308;BME280;74486;52.070;5.128;2024-02-28T09:26:26;102243.91;;;6.79;96.79
84308;BME280;74486;52.070;5.128;2024-02-28T09:28:52;102245.84;;;6.62;98.01
84308;BME280;74486;52.070;5.128;2024-02-28T09:31:18;102242.19;;;6.60;98.55
84308;BME280;74486;52.070;5.128;2024-02-28T09:33:44;102249.88;;;6.68;98.72
84308;BME280;74486;52.070;5.128;2024-02-28T09:36:09;102236.75;;;6.87;97.92
84308;BME280;74486;52.070;5.128;2024-02-28T09:38:35;102233.88;;;6.94;97.56
84308;BME280;74486;52.070;5.128;2024-02-28T09:41:00;102241.31;;;7.41;95.40
84308;BME280;74486;52.070;5.128;2024-02-28T09:43:29;102245.31;;;7.80;92.00
84308;BME280;74486;52.070;5.128;2024-02-28T09:45:59;102242.91;;;7.71;91.77
84308;BME280;74486;52.070;5.128;2024-02-28T09:48:27;102250.63;;;7.92;90.66
84308;BME280;74486;52.070;5.128;2024-02-28T09:50:52;102259.25;;;8.34;88.79
84308;BME280;74486;52.070;5.128;2024-02-28T09:53:18;102249.75;;;8.35;88.65
84308;BME280;74486;52.070;5.128;2024-02-28T09:55:43;102244.69;;;8.04;90.70
84308;BME280;74486;52.070;5.128;2024-02-28T09:58:09;102261.25;;;7.95;90.11
84308;BME280;74486;52.070;5.128;2024-02-28T10:00:36;102266.78;;;7.88;91.74
84308;BME280;74486;52.070;5.128;2024-02-28T10:03:04;102259.00;;;7.77;93.38
84308;BME280;74486;52.070;5.128;2024-02-28T10:05:30;102259.28;;;8.02;91.62
84308;BME280;74486;52.070;5.128;2024-02-28T10:07:58;102252.81;;;7.97;91.95
84308;BME280;74486;52.070;5.128;2024-02-28T10:10:23;102251.09;;;8.19;90.48
84308;BME280;74486;52.070;5.128;2024-02-28T10:12:49;102246.56;;;8.17;90.98
84308;BME280;74486;52.070;5.128;2024-02-28T10:15:14;102233.56;;;8.39;90.33
84308;BME280;74486;52.070;5.128;2024-02-28T10:17:40;102237.84;;;9.05;87.17
84308;BME280;74486;52.070;5.128;2024-02-28T10:20:07;102228.75;;;9.58;83.82
84308;BME280;74486;52.070;5.128;2024-02-28T10:22:34;102231.03;;;9.42;85.45
84308;BME280;74486;52.070;5.128;2024-02-28T10:25:00;102216.28;;;9.31;85.20
84308;BME280;74486;52.070;5.128;2024-02-28T10:27:25;102218.41;;;9.59;84.87
84308;BME280;74486;52.070;5.128;2024-02-28T10:29:51;102223.75;;;9.49;85.44
84308;BME280;74486;52.070;5.128;2024-02-28T10:32:16;102237.25;;;9.09;86.57
84308;BME280;74486;52.070;5.128;2024-02-28T10:34:42;102236.38;;;9.32;86.47
84308;BME280;74486;52.070;5.128;2024-02-28T10:37:10;102222.44;;;9.91;85.05
84308;BME280;74486;52.070;5.128;2024-02-28T10:39:35;102222.72;;;10.07;82.82
84308;BME280;74486;52.070;5.128;2024-02-28T10:42:03;102218.94;;;10.52;82.54
84308;BME280;74486;52.070;5.128;2024-02-28T10:44:30;102228.56;;;10.64;80.30
84308;BME280;74486;52.070;5.128;2024-02-28T10:46:56;102222.75;;;10.43;81.12
84308;BME280;74486;52.070;5.128;2024-02-28T10:49:22;102225.34;;;10.07;82.07
84308;BME280;74486;52.070;5.128;2024-02-28T10:51:49;102231.91;;;9.77;84.44
84308;BME280;74486;52.070;5.128;2024-02-28T10:54:16;102222.66;;;9.94;83.89
84308;BME280;74486;52.070;5.128;2024-02-28T10:56:45;102225.00;;;10.26;82.00
84308;BME280;74486;52.070;5.128;2024-02-28T10:59:11;102213.88;;;10.41;81.35
84308;BME280;74486;52.070;5.128;2024-02-28T11:01:39;102228.84;;;9.71;83.79
84308;BME280;74486;52.070;5.128;2024-02-28T11:04:05;102223.78;;;9.38;85.85
84308;BME280;74486;52.070;5.128;2024-02-28T11:06:31;102224.56;;;9.13;87.27
84308;BME280;74486;52.070;5.128;2024-02-28T11:08:59;102236.09;;;9.05;89.08
84308;BME280;74486;52.070;5.128;2024-02-28T11:11:30;102225.09;;;8.98;88.72
84308;BME280;74486;52.070;5.128;2024-02-28T11:13:57;102225.44;;;9.02;89.05
84308;BME280;74486;52.070;5.128;2024-02-28T11:16:27;102228.75;;;9.00;90.07
84308;BME280;74486;52.070;5.128;2024-02-28T11:18:52;102222.28;;;8.95;90.96
84308;BME280;74486;52.070;5.128;2024-02-28T11:21:18;102223.44;;;9.33;89.68
84308;BME280;74486;52.070;5.128;2024-02-28T11:23:46;102214.91;;;9.47;88.27
84308;BME280;74486;52.070;5.128;2024-02-28T11:26:11;102216.03;;;9.39;89.39
84308;BME280;74486;52.070;5.128;2024-02-28T11:28:38;102206.91;;;9.81;87.81
84308;BME280;74486;52.070;5.128;2024-02-28T11:31:04;102205.34;;;9.71;86.32
84308;BME280;74486;52.070;5.128;2024-02-28T11:33:29;102215.13;;;9.62;86.86
84308;BME280;74486;52.070;5.128;2024-02-28T11:35:55;102215.38;;;9.42;87.45
84308;BME280;74486;52.070;5.128;2024-02-28T11:38:21;102214.81;;;9.23;88.42
84308;BME280;74486;52.070;5.128;2024-02-28T11:40:49;102205.63;;;9.28;87.89
84308;BME280;74486;52.070;5.128;2024-02-28T11:43:14;102202.78;;;9.36;88.66
84308;BME280;74486;52.070;5.128;2024-02-28T11:45:41;102196.41;;;9.56;88.01
84308;BME280;74486;52.070;5.128;2024-02-28T11:48:07;102185.31;;;9.83;86.25
84308;BME280;74486;52.070;5.128;2024-02-28T11:50:32;102194.91;;;10.08;84.43
84308;BME280;74486;52.070;5.128;2024-02-28T11:52:57;102190.34;;;9.80;85.37
84308;BME280;74486;52.070;5.128;2024-02-28T11:55:24;102192.09;;;9.93;85.76
84308;BME280;74486;52.070;5.128;2024-02-28T11:57:50;102193.19;;;10.08;85.42
84308;BME280;74486;52.070;5.128;2024-02-28T12:00:15;102193.78;;;10.04;84.50
84308;BME280;74486;52.070;5.128;2024-02-28T12:02:42;102190.25;;;10.03;84.50
84308;BME280;74486;52.070;5.128;2024-02-28T12:05:08;102192.50;;;10.22;83.03
84308;BME280;74486;52.070;5.128;2024-02-28T12:07:33;102193.69;;;10.39;83.59
84308;BME280;74486;52.070;5.128;2024-02-28T12:09:59;102194.63;;;10.28;83.83
84308;BME280;74486;52.070;5.128;2024-02-28T12:12:27;102183.44;;;10.17;84.04
84308;BME280;74486;52.070;5.128;2024-02-28T12:14:52;102194.16;;;9.97;85.34
84308;BME280;74486;52.070;5.128;2024-02-28T12:17:18;102194.00;;;9.71;85.46
84308;BME280;74486;52.070;5.128;2024-02-28T12:19:44;102189.22;;;9.77;85.57
84308;BME280;74486;52.070;5.128;2024-02-28T12:22:10;102186.88;;;9.68;86.47
84308;BME280;74486;52.070;5.128;2024-02-28T12:24:36;102181.16;;;9.74;86.05
84308;BME280;74486;52.070;5.128;2024-02-28T12:27:02;102181.88;;;9.59;86.31
84308;BME280;74486;52.070;5.128;2024-02-28T12:29:27;102188.03;;;9.48;87.84
84308;BME280;74486;52.070;5.128;2024-02-28T12:31:53;102188.69;;;9.46;87.55
84308;BME280;74486;52.070;5.128;2024-02-28T12:34:18;102197.56;;;9.48;87.18
84308;BME280;74486;52.070;5.128;2024-02-28T12:36:45;102183.84;;;9.27;87.97
84308;BME280;74486;52.070;5.128;2024-02-28T12:39:11;102183.16;;;9.30;87.92
84308;BME280;74486;52.070;5.128;2024-02-28T12:41:36;102172.38;;;9.48;87.04
84308;BME280;74486;52.070;5.128;2024-02-28T12:44:02;102164.81;;;9.76;87.29